Weather at Donousa Heliport

Public forecast

Using degrees Celsius for public forecast. Weather courtesy of forecast.io.

Closest aviation weather report (METAR) to Donousa Heliport

Closest report is Naxos Apollon Airport, 20.7 nm (38.2 km) W.

2024/02/22 11:50 (retrieved 22 minutes ago)

LGNX 221150Z 34006KT 9999 SCT035 17/07 Q1022

Closest aviation forecast (TAF) to Donousa Heliport

Closest forecast is Santorini Airport, 44.5 nm (82.4 km) SSW.

2024/02/22 12:12 (retrieved 0 seconds ago)

TAF LGSR 221100Z 2212/2312 VRB05KT 9999 FEW025 BECMG 2220/2222 19010KT